Time;durP1;ratioP1;P1;durP2;ratioP2;P2;SDS_P1;SDS_P2;PMS_P1;PMS_P2;Temp;Humidity;BMP_temperature;BMP_pressure;BME280_temperature;BME280_humidity;BME280_pressure;Samples;Min_cycle;Max_cycle;Signal;HPM_P1;HPM_P2
2023/10/10 00:00:54;;;;;;;5.30;3.10;;;;;;;-145.53;100.00;64590.91;6127299;28;108898;-71
2023/10/10 00:04:01;;;;;;;4.30;2.90;;;;;;;-145.53;100.00;64590.91;6116842;28;109269;-71
2023/10/10 00:07:05;;;;;;;4.53;3.10;;;;;;;-145.53;100.00;64590.91;6133723;28;109057;-71
2023/10/10 00:10:13;;;;;;;4.82;3.70;;;;;;;-145.53;100.00;64590.91;6139824;28;109232;-72
2023/10/10 00:13:19;;;;;;;5.63;3.40;;;;;;;-145.53;100.00;64590.91;6129550;28;109695;-69
2023/10/10 00:16:25;;;;;;;7.00;3.90;;;;;;;-145.53;100.00;64590.91;6138478;28;109030;-71
2023/10/10 00:19:37;;;;;;;6.05;4.05;;;;;;;-145.53;100.00;64590.91;6139686;28;109796;-71
2023/10/10 00:22:43;;;;;;;6.05;4.30;;;;;;;-145.53;100.00;64590.91;6116298;28;109222;-71
2023/10/10 00:25:49;;;;;;;6.60;4.25;;;;;;;-145.53;100.00;64590.91;6133676;28;108850;-70
2023/10/10 00:28:56;;;;;;;7.00;4.47;;;;;;;-145.53;100.00;64590.91;6138306;28;109014;-71
2023/10/10 00:32:12;;;;;;;6.00;4.20;;;;;;;-145.53;100.00;64590.91;6143679;28;109176;-70
2023/10/10 00:35:17;;;;;;;6.20;4.30;;;;;;;-145.53;100.00;64590.91;6110637;28;109957;-69
2023/10/10 00:38:24;;;;;;;6.18;4.47;;;;;;;-145.53;100.00;64590.91;6138077;28;109902;-70
2023/10/10 00:41:29;;;;;;;6.80;4.65;;;;;;;-145.53;100.00;64590.91;6135094;28;109282;-70
2023/10/10 00:44:37;;;;;;;6.88;4.50;;;;;;;-145.53;100.00;64590.91;6132800;28;109265;-69
2023/10/10 00:47:45;;;;;;;6.35;4.20;;;;;;;-145.53;100.00;64590.91;6133098;28;109548;-71
2023/10/10 00:50:51;;;;;;;7.15;4.85;;;;;;;-145.53;100.00;64590.91;6140266;28;109888;-71
2023/10/10 00:54:08;;;;;;;6.33;4.37;;;;;;;-145.53;100.00;64590.91;6139029;28;109352;-71
2023/10/10 00:57:15;;;;;;;6.55;4.50;;;;;;;-145.53;100.00;64590.91;6127147;28;109720;-71
2023/10/10 01:00:20;;;;;;;6.25;4.25;;;;;;;-145.53;100.00;64590.91;6138039;28;109073;-71
2023/10/10 01:03:23;;;;;;;6.07;4.10;;;;;;;-145.53;100.00;64590.91;6136685;28;109152;-66
2023/10/10 01:06:26;;;;;;;5.85;4.00;;;;;;;-145.53;100.00;64590.91;6134871;28;108966;-65
2023/10/10 01:09:33;;;;;;;8.80;4.70;;;;;;;-145.53;100.00;64590.91;6126045;28;109317;-65
2023/10/10 01:12:39;;;;;;;7.07;4.13;;;;;;;-145.53;100.00;64590.91;6133271;28;108938;-66
2023/10/10 01:15:56;;;;;;;7.32;4.10;;;;;;;-145.53;100.00;64590.91;6134774;28;109313;-66
2023/10/10 01:19:00;;;;;;;5.65;4.15;;;;;;;-145.53;100.00;64590.91;6123365;28;109431;-66
2023/10/10 01:22:22;;;;;;;7.00;4.20;;;;;;;-145.53;100.00;64590.91;6126324;28;109492;-66
2023/10/10 01:25:45;;;;;;;6.07;4.05;;;;;;;-145.53;100.00;64590.91;6132732;28;109076;-66
2023/10/10 01:28:48;;;;;;;6.65;3.90;;;;;;;-145.53;100.00;64590.91;6128175;28;109063;-65
2023/10/10 01:31:52;;;;;;;6.07;4.10;;;;;;;-145.53;100.00;64590.91;6125563;28;110348;-65
2023/10/10 01:34:56;;;;;;;6.27;3.80;;;;;;;-145.53;100.00;64590.91;6126272;28;110025;-66
2023/10/10 01:38:03;;;;;;;7.70;4.70;;;;;;;-145.53;100.00;64590.91;6126526;28;109578;-66
2023/10/10 01:41:15;;;;;;;7.27;4.90;;;;;;;-145.53;100.00;64590.91;6137432;28;109316;-66
2023/10/10 01:44:23;;;;;;;7.97;5.70;;;;;;;-145.53;100.00;64590.91;6119635;28;110363;-66
2023/10/10 01:47:27;;;;;;;7.27;5.30;;;;;;;-145.53;100.00;64590.91;6133887;28;109745;-66
2023/10/10 01:50:31;;;;;;;8.55;5.40;;;;;;;-145.53;100.00;64590.91;6136670;28;112605;-67
2023/10/10 01:53:40;;;;;;;6.17;4.60;;;;;;;-145.53;100.00;64590.91;6125242;28;109199;-67
2023/10/10 01:56:44;;;;;;;8.50;5.80;;;;;;;-145.53;100.00;64590.91;6134058;28;109216;-66
2023/10/10 01:59:47;;;;;;;7.63;5.30;;;;;;;-145.53;100.00;64590.91;6136468;28;110905;-66
2023/10/10 02:02:52;;;;;;;6.55;4.80;;;;;;;-145.53;100.00;64590.91;6136398;28;110280;-66
2023/10/10 02:05:57;;;;;;;7.23;5.70;;;;;;;-145.53;100.00;64590.91;6122991;28;109000;-66
2023/10/10 02:09:11;;;;;;;7.05;5.50;;;;;;;-145.53;100.00;64590.91;6117102;28;109161;-66
2023/10/10 02:12:16;;;;;;;9.00;5.30;;;;;;;-145.53;100.00;64590.91;6113144;28;108932;-62
2023/10/10 02:15:26;;;;;;;7.57;5.45;;;;;;;-145.53;100.00;64590.91;6134477;28;109081;-64
2023/10/10 02:18:39;;;;;;;6.90;5.30;;;;;;;-145.53;100.00;64590.91;6129664;28;110669;-64
2023/10/10 02:21:47;;;;;;;7.38;5.30;;;;;;;-145.53;100.00;64590.91;6137046;28;109389;-63
2023/10/10 02:25:31;;;;;;;8.18;5.75;;;;;;;-145.53;100.00;64590.91;6118917;28;112087;-63
2023/10/10 02:28:21;;;;;;;7.82;5.63;;;;;;;-145.53;100.00;64590.91;6112518;28;111199;-64
2023/10/10 02:31:28;;;;;;;9.32;6.00;;;;;;;-145.53;100.00;64590.91;6125483;28;109586;-64
2023/10/10 02:34:34;;;;;;;7.05;5.13;;;;;;;-145.53;100.00;64590.91;6118425;28;110112;-63
2023/10/10 02:37:45;;;;;;;8.07;5.80;;;;;;;-145.53;100.00;64590.91;6129266;28;108989;-63
2023/10/10 02:40:55;;;;;;;7.25;5.82;;;;;;;-145.53;100.00;64590.91;6103319;28;110750;-63
2023/10/10 02:44:05;;;;;;;8.10;5.53;;;;;;;-145.53;100.00;64590.91;6128146;28;110666;-63
2023/10/10 02:47:12;;;;;;;8.50;6.63;;;;;;;-145.53;100.00;64590.91;6132964;28;109013;-63
2023/10/10 02:50:39;;;;;;;9.32;7.47;;;;;;;-145.53;100.00;64590.91;6103644;28;109025;-65
2023/10/10 02:53:45;;;;;;;8.70;6.43;;;;;;;-145.53;100.00;64590.91;6112346;28;109067;-63
2023/10/10 02:56:53;;;;;;;9.77;7.90;;;;;;;-145.53;100.00;64590.91;6132573;28;109053;-63
2023/10/10 03:00:15;;;;;;;8.63;7.10;;;;;;;-145.53;100.00;64590.91;6134919;28;109085;-63
2023/10/10 03:03:19;;;;;;;9.25;6.40;;;;;;;-145.53;100.00;64590.91;6112342;28;108807;-63
2023/10/10 03:06:28;;;;;;;7.30;6.35;;;;;;;-145.53;100.00;64590.91;6137057;28;109278;-62
2023/10/10 03:09:38;;;;;;;7.20;5.93;;;;;;;-145.53;100.00;64590.91;6131660;28;109124;-62
2023/10/10 03:12:49;;;;;;;7.80;6.90;;;;;;;-145.53;100.00;64590.91;6128326;28;109227;-60
2023/10/10 03:15:55;;;;;;;23.57;21.30;;;;;;;-145.53;100.00;64590.91;6131236;28;109139;-60
2023/10/10 03:22:28;;;;;;;83.40;76.10;;;;;;;-145.53;100.00;64590.91;6134935;28;110797;-60
2023/10/10 03:25:38;;;;;;;72.90;66.20;;;;;;;-145.53;100.00;64590.91;6123058;28;109225;-60
2023/10/10 03:28:47;;;;;;;66.90;60.80;;;;;;;-145.53;100.00;64590.91;6136597;28;110127;-60
2023/10/10 03:32:18;;;;;;;71.43;64.93;;;;;;;-145.53;100.00;64590.91;6138130;28;109499;-60
2023/10/10 03:35:20;;;;;;;49.25;44.55;;;;;;;-145.53;100.00;64590.91;6121056;28;109014;-60
2023/10/10 03:38:44;;;;;;;39.50;35.50;;;;;;;-145.53;100.00;64590.91;6113414;28;109014;-60
2023/10/10 05:25:41;;;;;;;7.80;3.78;;;;;;;-145.53;100.00;64590.91;6137158;28;109001;-58
2023/10/10 05:28:45;;;;;;;5.90;3.90;;;;;;;-145.53;100.00;64590.91;6132852;28;110213;-58
2023/10/10 05:31:51;;;;;;;9.05;4.10;;;;;;;-145.53;100.00;64590.91;6139093;28;108892;-58
2023/10/10 05:34:54;;;;;;;9.00;4.10;;;;;;;-145.53;100.00;64590.91;6113536;28;109110;-58
2023/10/10 05:38:01;;;;;;;8.50;4.03;;;;;;;-145.53;100.00;64590.91;6125280;28;109333;-58
2023/10/10 05:41:07;;;;;;;5.90;4.00;;;;;;;-145.53;100.00;64590.91;6127144;28;109269;-58
2023/10/10 05:44:13;;;;;;;7.72;3.67;;;;;;;-145.53;100.00;64590.91;6116600;28;108770;-57
2023/10/10 05:47:17;;;;;;;8.23;4.00;;;;;;;-145.53;100.00;64590.91;6118858;28;108968;-58
2023/10/10 05:50:22;;;;;;;7.50;3.80;;;;;;;-145.53;100.00;64590.91;6137393;28;108987;-58
2023/10/10 05:53:25;;;;;;;7.10;3.50;;;;;;;-145.53;100.00;64590.91;6128433;28;109301;-58
2023/10/10 05:56:34;;;;;;;6.10;3.40;;;;;;;-145.53;100.00;64590.91;6136798;28;109474;-58
2023/10/10 05:59:37;;;;;;;6.25;3.60;;;;;;;-145.53;100.00;64590.91;6112080;28;109676;-58
2023/10/10 06:02:43;;;;;;;7.80;4.30;;;;;;;-145.53;100.00;64590.91;6118125;28;111537;-63
2023/10/10 06:05:48;;;;;;;4.57;3.50;;;;;;;-145.53;100.00;64590.91;6132686;28;108990;-58
2023/10/10 06:09:00;;;;;;;7.72;3.92;;;;;;;-145.53;100.00;64590.91;6119002;28;109085;-58
2023/10/10 06:12:05;;;;;;;6.47;4.00;;;;;;;-145.53;100.00;64590.91;6112746;28;109367;-58
2023/10/10 06:15:09;;;;;;;7.47;4.03;;;;;;;-145.53;100.00;64590.91;6105102;28;110172;-58
2023/10/10 06:18:15;;;;;;;5.72;3.90;;;;;;;-145.53;100.00;64590.91;6113201;28;109147;-58
2023/10/10 06:21:21;;;;;;;7.63;3.90;;;;;;;-145.53;100.00;64590.91;6112942;28;109013;-58
2023/10/10 06:24:26;;;;;;;7.05;4.10;;;;;;;-145.53;100.00;64590.91;6133787;28;108697;-58
2023/10/10 06:27:36;;;;;;;8.88;3.50;;;;;;;-145.53;100.00;64590.91;6122310;28;110137;-58
2023/10/10 06:30:44;;;;;;;12.55;4.40;;;;;;;-145.53;100.00;64590.91;6114949;28;109254;-58
2023/10/10 06:33:49;;;;;;;6.93;3.73;;;;;;;-145.53;100.00;64590.91;6138265;28;108818;-58
2023/10/10 06:36:54;;;;;;;6.63;3.60;;;;;;;-145.53;100.00;64590.91;6137365;28;108954;-58
2023/10/10 06:39:57;;;;;;;6.70;4.10;;;;;;;-145.53;100.00;64590.91;6111649;28;110097;-58
2023/10/10 06:43:07;;;;;;;6.43;3.50;;;;;;;-145.53;100.00;64590.91;6125545;28;110148;-58
2023/10/10 06:46:16;;;;;;;5.82;3.58;;;;;;;-145.53;100.00;64590.91;6140918;28;109466;-58
2023/10/10 06:49:21;;;;;;;7.10;4.00;;;;;;;-145.53;100.00;64590.91;6135009;28;108897;-58
2023/10/10 06:52:27;;;;;;;6.90;3.97;;;;;;;-145.53;100.00;64590.91;6140568;28;109078;-57
2023/10/10 06:55:37;;;;;;;5.45;4.07;;;;;;;-145.53;100.00;64590.91;6142388;28;109379;-67
2023/10/10 06:58:43;;;;;;;6.90;3.90;;;;;;;-145.53;100.00;64590.91;6141287;28;109180;-67
2023/10/10 07:01:46;;;;;;;6.22;3.70;;;;;;;-145.53;100.00;64590.91;6132124;28;110602;-68
2023/10/10 07:04:53;;;;;;;6.00;3.80;;;;;;;-145.53;100.00;64590.91;6119849;28;109206;-67
2023/10/10 07:08:12;;;;;;;6.90;4.30;;;;;;;-145.53;100.00;64590.91;6118592;28;108944;-67
2023/10/10 07:11:20;;;;;;;6.22;3.80;;;;;;;-145.53;100.00;64590.91;6113589;28;108671;-64
2023/10/10 07:14:25;;;;;;;6.45;3.70;;;;;;;-145.53;100.00;64590.91;6112439;28;109450;-67
2023/10/10 07:17:28;;;;;;;5.05;4.10;;;;;;;-145.53;100.00;64590.91;6120985;28;109971;-65
2023/10/10 07:24:05;;;;;;;5.07;3.83;;;;;;;-145.53;100.00;64590.91;6129386;28;111518;-62
2023/10/10 07:27:11;;;;;;;4.90;3.70;;;;;;;-145.53;100.00;64590.91;6140395;28;109823;-62
2023/10/10 07:30:18;;;;;;;5.70;3.50;;;;;;;-145.53;100.00;64590.91;6140242;28;108903;-62
2023/10/10 07:33:26;;;;;;;5.35;3.75;;;;;;;-145.53;100.00;64590.91;6140044;28;109320;-62
2023/10/10 07:36:29;;;;;;;6.15;3.70;;;;;;;-145.53;100.00;64590.91;6130254;28;109298;-62
2023/10/10 07:39:35;;;;;;;6.43;4.00;;;;;;;-145.53;100.00;64590.91;6139232;28;109145;-61
2023/10/10 07:42:38;;;;;;;4.90;3.30;;;;;;;-145.53;100.00;64590.91;6139139;28;109353;-62
2023/10/10 07:45:44;;;;;;;6.63;3.60;;;;;;;-145.53;100.00;64590.91;6128325;28;109218;-61
2023/10/10 07:48:46;;;;;;;5.95;3.63;;;;;;;-145.53;100.00;64590.91;6138651;28;109368;-63
2023/10/10 07:51:49;;;;;;;7.70;3.30;;;;;;;-145.53;100.00;64590.91;6139746;28;109051;-61
2023/10/10 07:54:53;;;;;;;6.28;3.45;;;;;;;-145.53;100.00;64590.91;6119872;28;108948;-62
2023/10/10 07:57:59;;;;;;;6.40;3.60;;;;;;;-145.53;100.00;64590.91;6104899;28;109159;-62
2023/10/10 08:01:09;;;;;;;5.60;3.30;;;;;;;-145.53;100.00;64590.91;6119228;28;110388;-62
2023/10/10 08:04:14;;;;;;;8.07;3.37;;;;;;;-145.53;100.00;64590.91;6139304;28;110033;-61
2023/10/10 08:07:21;;;;;;;6.38;3.63;;;;;;;-145.53;100.00;64590.91;6139064;28;109231;-61
2023/10/10 08:10:34;;;;;;;6.18;3.78;;;;;;;-145.53;100.00;64590.91;6128498;28;109716;-61
2023/10/10 08:13:37;;;;;;;5.97;3.70;;;;;;;-145.53;100.00;64590.91;6138718;28;109005;-61
2023/10/10 08:16:43;;;;;;;6.43;3.95;;;;;;;-145.53;100.00;64590.91;6138776;28;109174;-61
2023/10/10 08:19:51;;;;;;;8.38;4.25;;;;;;;-145.53;100.00;64590.91;6128028;28;108950;-61
2023/10/10 08:22:59;;;;;;;5.30;3.00;;;;;;;-145.53;100.00;64590.91;6137317;28;109318;-61
2023/10/10 08:26:02;;;;;;;6.70;4.57;;;;;;;-145.53;100.00;64590.91;6137754;28;110357;-61
2023/10/10 08:29:07;;;;;;;6.40;4.00;;;;;;;-145.53;100.00;64590.91;6126230;28;109081;-61
2023/10/10 08:32:12;;;;;;;6.03;3.53;;;;;;;-145.53;100.00;64590.91;6115080;28;109803;-61
2023/10/10 08:35:16;;;;;;;5.70;3.50;;;;;;;-145.53;100.00;64590.91;6137565;28;110111;-61
2023/10/10 08:38:20;;;;;;;5.68;3.83;;;;;;;-145.53;100.00;64590.91;6137346;28;109036;-61
2023/10/10 08:41:26;;;;;;;6.97;4.25;;;;;;;-145.53;100.00;64590.91;6137365;28;109173;-61
2023/10/10 08:44:31;;;;;;;6.82;3.80;;;;;;;-145.53;100.00;64590.91;6126691;28;109255;-61
2023/10/10 08:47:42;;;;;;;7.60;4.30;;;;;;;-145.53;100.00;64590.91;6137383;28;110079;-61
2023/10/10 08:50:46;;;;;;;7.90;4.57;;;;;;;-145.53;100.00;64590.91;6136901;28;109262;-61
2023/10/10 08:53:51;;;;;;;5.63;4.50;;;;;;;-145.53;100.00;64590.91;6127770;28;109227;-61
2023/10/10 08:57:00;;;;;;;7.00;4.43;;;;;;;-145.53;100.00;64590.91;6135250;28;110097;-61
2023/10/10 09:00:11;;;;;;;6.20;4.00;;;;;;;-145.53;100.00;64590.91;6136021;28;109457;-60
2023/10/10 09:03:16;;;;;;;5.93;4.50;;;;;;;-145.53;100.00;64590.91;6136571;28;109042;-61
2023/10/10 09:06:20;;;;;;;7.03;4.13;;;;;;;-145.53;100.00;64590.91;6126251;28;110197;-61
2023/10/10 09:09:37;;;;;;;8.23;5.10;;;;;;;-145.53;100.00;64590.91;6136683;28;108810;-61
2023/10/10 09:12:55;;;;;;;9.85;4.88;;;;;;;-145.53;100.00;64590.91;6136923;28;109351;-61
2023/10/10 09:15:58;;;;;;;5.75;4.60;;;;;;;-145.53;100.00;64590.91;6107932;28;109051;-59
2023/10/10 09:19:10;;;;;;;7.63;4.50;;;;;;;-145.53;100.00;64590.91;6106544;28;109222;-59
2023/10/10 09:22:28;;;;;;;5.93;4.00;;;;;;;-145.53;100.00;64590.91;6112726;28;109054;-59
2023/10/10 09:25:42;;;;;;;7.72;4.68;;;;;;;-145.53;100.00;64590.91;6113188;28;108954;-59
2023/10/10 09:28:48;;;;;;;6.88;4.45;;;;;;;-145.53;100.00;64590.91;6102094;28;109280;-59
2023/10/10 09:31:59;;;;;;;7.30;4.50;;;;;;;-145.53;100.00;64590.91;6122024;28;109025;-59
2023/10/10 09:35:08;;;;;;;6.90;4.72;;;;;;;-145.53;100.00;64590.91;6136297;28;109057;-58
2023/10/10 09:38:19;;;;;;;5.80;4.35;;;;;;;-145.53;100.00;64590.91;6136145;28;110042;-59
2023/10/10 09:41:37;;;;;;;7.30;4.50;;;;;;;-145.53;100.00;64590.91;6101923;28;109016;-60
2023/10/10 09:45:18;;;;;;;7.93;4.50;;;;;;;-145.53;100.00;64590.91;6112367;28;109216;-58
2023/10/10 09:48:59;;;;;;;6.20;3.95;;;;;;;-145.53;100.00;64590.91;6112304;28;108677;-59
2023/10/10 09:58:46;;;;;;;6.65;4.03;;;;;;;-145.53;100.00;64590.91;6106439;28;109116;-60
2023/10/10 10:01:59;;;;;;;7.30;4.80;;;;;;;-145.53;100.00;64590.91;6113914;28;109702;-58
2023/10/10 10:05:13;;;;;;;5.57;4.03;;;;;;;-145.53;100.00;64590.91;6133913;28;109539;-58
2023/10/10 10:08:23;;;;;;;7.22;4.22;;;;;;;-145.53;100.00;64590.91;6135234;28;109129;-59
2023/10/10 10:11:35;;;;;;;7.00;4.10;;;;;;;-145.53;100.00;64590.91;6115159;28;109243;-59
2023/10/10 10:14:47;;;;;;;5.65;3.80;;;;;;;-145.53;100.00;64590.91;6103865;28;109023;-62
2023/10/10 10:17:57;;;;;;;6.63;4.07;;;;;;;-145.53;100.00;64590.91;6115241;28;110289;-59
2023/10/10 10:21:16;;;;;;;5.72;3.92;;;;;;;-145.53;100.00;64590.91;6114974;28;109071;-59
2023/10/10 10:24:30;;;;;;;5.63;3.70;;;;;;;-145.53;100.00;64590.91;6117074;28;109378;-62
2023/10/10 10:27:35;;;;;;;4.27;3.40;;;;;;;-145.53;100.00;64590.91;6134107;28;109247;-62
2023/10/10 10:30:50;;;;;;;6.60;3.50;;;;;;;-145.53;100.00;64590.91;6138939;28;110166;-62
2023/10/10 10:34:06;;;;;;;4.75;3.50;;;;;;;-145.53;100.00;64590.91;6139374;28;110579;-62
2023/10/10 10:37:19;;;;;;;6.13;3.90;;;;;;;-145.53;100.00;64590.91;6128417;28;110778;-62
2023/10/10 10:40:42;;;;;;;4.40;3.20;;;;;;;-145.53;100.00;64590.91;6137439;28;109265;-62
2023/10/10 10:43:50;;;;;;;4.83;3.43;;;;;;;-145.53;100.00;64590.91;6138107;28;109036;-62
2023/10/10 10:46:56;;;;;;;4.45;3.70;;;;;;;-145.53;100.00;64590.91;6133669;28;110481;-62
2023/10/10 10:50:00;;;;;;;4.40;3.00;;;;;;;-145.53;100.00;64590.91;6132437;28;109442;-62
2023/10/10 10:53:08;;;;;;;4.20;3.08;;;;;;;-145.53;100.00;64590.91;6138731;28;110201;-62
2023/10/10 10:59:38;;;;;;;4.75;3.45;;;;;;;-145.53;100.00;64590.91;6103452;28;109671;-62
2023/10/10 11:02:49;;;;;;;5.80;3.40;;;;;;;-145.53;100.00;64590.91;6129921;28;109126;-62
2023/10/10 11:05:55;;;;;;;5.93;4.13;;;;;;;-145.53;100.00;64590.91;6138139;28;109922;-62
2023/10/10 11:09:10;;;;;;;4.90;3.58;;;;;;;-145.53;100.00;64590.91;6137824;28;109043;-62
2023/10/10 11:12:17;;;;;;;4.83;3.40;;;;;;;-145.53;100.00;64590.91;6127004;28;111700;-62
2023/10/10 11:15:25;;;;;;;5.13;3.72;;;;;;;-145.53;100.00;64590.91;6137637;28;109188;-62
2023/10/10 11:18:34;;;;;;;4.93;3.60;;;;;;;-145.53;100.00;64590.91;6137742;28;109308;-62
2023/10/10 11:21:47;;;;;;;6.60;4.50;;;;;;;-145.53;100.00;64590.91;6126085;28;109237;-62
2023/10/10 11:24:57;;;;;;;5.57;3.80;;;;;;;-145.53;100.00;64590.91;6137354;28;109147;-62
2023/10/10 11:28:04;;;;;;;6.07;4.40;;;;;;;-145.53;100.00;64590.91;6137776;28;109266;-63
2023/10/10 11:31:07;;;;;;;5.17;4.20;;;;;;;-145.53;100.00;64590.91;6137954;28;109661;-62
2023/10/10 11:34:25;;;;;;;7.03;5.72;;;;;;;-145.53;100.00;64590.91;6126327;28;109405;-58
2023/10/10 11:37:34;;;;;;;6.95;6.25;;;;;;;-145.53;100.00;64590.91;6137593;28;109509;-58
2023/10/10 11:40:38;;;;;;;7.90;7.13;;;;;;;-145.53;100.00;64590.91;6137426;28;110086;-58
2023/10/10 11:44:03;;;;;;;8.00;7.20;;;;;;;-145.53;100.00;64590.91;6131946;28;109231;-59
2023/10/10 11:47:08;;;;;;;8.25;7.43;;;;;;;-145.53;100.00;64590.91;6108977;28;109200;-58
2023/10/10 11:50:13;;;;;;;9.15;8.30;;;;;;;-145.53;100.00;64590.91;6113066;28;109567;-58
2023/10/10 11:53:19;;;;;;;9.83;8.93;;;;;;;-145.53;100.00;64590.91;6113145;28;109798;-58
2023/10/10 11:56:25;;;;;;;9.87;8.97;;;;;;;-145.53;100.00;64590.91;6101763;28;109867;-59
2023/10/10 11:59:32;;;;;;;11.33;8.80;;;;;;;-145.53;100.00;64590.91;6112173;28;109253;-58
2023/10/10 12:02:41;;;;;;;9.55;8.40;;;;;;;-145.53;100.00;64590.91;6126184;28;109634;-59
2023/10/10 12:05:51;;;;;;;10.27;9.27;;;;;;;-145.53;100.00;64590.91;6137066;28;109999;-59
2023/10/10 12:08:54;;;;;;;11.23;10.13;;;;;;;-145.53;100.00;64590.91;6125623;28;109020;-58
2023/10/10 12:12:02;;;;;;;19.52;17.70;;;;;;;-145.53;100.00;64590.91;6136451;28;109091;-58
2023/10/10 12:15:13;;;;;;;12.67;11.47;;;;;;;-145.53;100.00;64590.91;6128561;28;109992;-58
2023/10/10 12:18:16;;;;;;;9.70;8.80;;;;;;;-145.53;100.00;64590.91;6103286;28;109404;-60
2023/10/10 12:21:21;;;;;;;8.60;7.70;;;;;;;-145.53;100.00;64590.91;6112302;28;109982;-58
2023/10/10 12:24:25;;;;;;;10.50;7.70;;;;;;;-145.53;100.00;64590.91;6112756;28;108730;-59
2023/10/10 12:27:30;;;;;;;9.88;8.48;;;;;;;-145.53;100.00;64590.91;6112129;28;109276;-59
2023/10/10 12:30:35;;;;;;;11.52;10.32;;;;;;;-145.53;100.00;64590.91;6100841;28;109061;-60
2023/10/10 12:33:38;;;;;;;11.07;9.88;;;;;;;-145.53;100.00;64590.91;6133595;28;109261;-59
2023/10/10 12:36:43;;;;;;;12.00;10.75;;;;;;;-145.53;100.00;64590.91;6136386;28;109081;-58
2023/10/10 12:39:49;;;;;;;13.27;11.93;;;;;;;-145.53;100.00;64590.91;6133384;28;110376;-59
2023/10/10 12:42:52;;;;;;;13.20;11.95;;;;;;;-145.53;100.00;64590.91;6101566;28;109297;-59
2023/10/10 12:45:56;;;;;;;13.70;12.40;;;;;;;-145.53;100.00;64590.91;6111662;28;109614;-59
2023/10/10 12:48:59;;;;;;;14.00;12.70;;;;;;;-145.53;100.00;64590.91;6112410;28;110300;-58
2023/10/10 12:52:11;;;;;;;14.80;13.30;;;;;;;-145.53;100.00;64590.91;6107406;28;109049;-59
2023/10/10 12:55:16;;;;;;;14.80;13.30;;;;;;;-145.53;100.00;64590.91;6107597;28;109021;-58
2023/10/10 12:58:20;;;;;;;13.55;12.15;;;;;;;-145.53;100.00;64590.91;6111704;28;109071;-58
2023/10/10 13:01:27;;;;;;;13.02;11.60;;;;;;;-145.53;100.00;64590.91;6115199;28;109037;-60
2023/10/10 13:04:32;;;;;;;13.35;9.98;;;;;;;-145.53;100.00;64590.91;6124782;28;109315;-60
2023/10/10 13:07:37;;;;;;;14.75;13.35;;;;;;;-145.53;100.00;64590.91;6111983;28;109112;-59
2023/10/10 13:10:40;;;;;;;13.50;12.10;;;;;;;-145.53;100.00;64590.91;6111483;28;108713;-59
2023/10/10 13:13:48;;;;;;;14.27;12.88;;;;;;;-145.53;100.00;64590.91;6111825;28;110157;-59
2023/10/10 13:16:53;;;;;;;12.90;11.50;;;;;;;-145.53;100.00;64590.91;6100718;28;109415;-58
2023/10/10 13:19:58;;;;;;;12.05;10.70;;;;;;;-145.53;100.00;64590.91;6111524;28;109214;-59
2023/10/10 13:23:02;;;;;;;10.15;9.10;;;;;;;-145.53;100.00;64590.91;6111847;28;110284;-59
2023/10/10 13:26:06;;;;;;;10.15;8.88;;;;;;;-145.53;100.00;64590.91;6105937;28;109153;-59
2023/10/10 13:29:10;;;;;;;10.70;9.60;;;;;;;-145.53;100.00;64590.91;6106152;28;111120;-58
2023/10/10 13:32:14;;;;;;;9.60;8.70;;;;;;;-145.53;100.00;64590.91;6120422;28;110387;-58
2023/10/10 13:35:19;;;;;;;10.57;9.10;;;;;;;-145.53;100.00;64590.91;6135286;28;108888;-58
2023/10/10 13:38:25;;;;;;;10.65;8.70;;;;;;;-145.53;100.00;64590.91;6124516;28;109959;-59
2023/10/10 13:41:28;;;;;;;12.75;11.45;;;;;;;-145.53;100.00;64590.91;6135400;28;111789;-59
2023/10/10 13:44:33;;;;;;;17.30;15.50;;;;;;;-145.53;100.00;64590.91;6135036;28;111537;-58
2023/10/10 13:47:40;;;;;;;46.72;42.45;;;;;;;-145.53;100.00;64590.91;6134177;28;110209;-59
2023/10/10 13:50:45;;;;;;;44.80;40.20;;;;;;;-145.53;100.00;64590.91;6123265;28;109384;-59
2023/10/10 13:53:48;;;;;;;35.10;31.70;;;;;;;-145.53;100.00;64590.91;6135520;28;109480;-59
2023/10/10 13:56:51;;;;;;;39.53;35.40;;;;;;;-145.53;100.00;64590.91;6135043;28;109108;-59
2023/10/10 13:59:54;;;;;;;25.05;21.27;;;;;;;-145.53;100.00;64590.91;6129504;28;109268;-60
2023/10/10 14:03:03;;;;;;;23.80;20.98;;;;;;;-145.53;100.00;64590.91;6129175;28;109003;-59
2023/10/10 14:06:10;;;;;;;24.10;19.75;;;;;;;-145.53;100.00;64590.91;6134968;28;109077;-59
2023/10/10 14:09:21;;;;;;;17.15;15.00;;;;;;;-145.53;100.00;64590.91;6135309;28;108954;-59
2023/10/10 14:12:26;;;;;;;23.00;18.10;;;;;;;-145.53;100.00;64590.91;6104679;28;109122;-59
2023/10/10 14:15:29;;;;;;;19.60;16.13;;;;;;;-145.53;100.00;64590.91;6111120;28;110128;-60
2023/10/10 14:18:42;;;;;;;16.63;14.27;;;;;;;-145.53;100.00;64590.91;6110169;28;108950;-59
2023/10/10 14:21:47;;;;;;;19.85;15.73;;;;;;;-145.53;100.00;64590.91;6110693;28;109030;-59
2023/10/10 14:24:51;;;;;;;16.35;12.95;;;;;;;-145.53;100.00;64590.91;6100510;28;109081;-59
2023/10/10 14:27:55;;;;;;;12.30;9.90;;;;;;;-145.53;100.00;64590.91;6110718;28;109071;-59
2023/10/10 14:30:58;;;;;;;12.27;8.98;;;;;;;-145.53;100.00;64590.91;6110715;28;109263;-59
2023/10/10 14:34:05;;;;;;;11.23;8.70;;;;;;;-145.53;100.00;64590.91;6151903;28;109931;-58
2023/10/10 14:37:08;;;;;;;11.77;8.10;;;;;;;-145.53;100.00;64590.91;6120080;28;108776;-59
2023/10/10 14:40:33;;;;;;;10.30;7.50;;;;;;;-145.53;100.00;64590.91;6110690;28;109071;-59
2023/10/10 14:43:36;;;;;;;9.52;6.90;;;;;;;-145.53;100.00;64590.91;6110401;28;109020;-59
2023/10/10 14:46:40;;;;;;;7.90;6.30;;;;;;;-145.53;100.00;64590.91;6099848;28;109125;-59
2023/10/10 14:49:45;;;;;;;8.10;6.00;;;;;;;-145.53;100.00;64590.91;6109525;28;109046;-60
2023/10/10 14:52:49;;;;;;;9.73;6.13;;;;;;;-145.53;100.00;64590.91;6130882;28;109068;-60
2023/10/10 14:55:52;;;;;;;8.60;5.70;;;;;;;-145.53;100.00;64590.91;6137171;28;109507;-59
2023/10/10 14:58:56;;;;;;;9.05;5.85;;;;;;;-145.53;100.00;64590.91;6127418;28;109752;-58
2023/10/10 15:02:00;;;;;;;6.82;4.90;;;;;;;-145.53;100.00;64590.91;6136237;28;109529;-58
2023/10/10 15:05:09;;;;;;;5.80;4.68;;;;;;;-145.53;100.00;64590.91;6134296;28;109152;-58
2023/10/10 15:08:13;;;;;;;9.98;4.85;;;;;;;-145.53;100.00;64590.91;6132070;28;110016;-59
2023/10/10 15:11:16;;;;;;;8.07;5.40;;;;;;;-145.53;100.00;64590.91;6129517;28;109041;-58
2023/10/10 15:14:21;;;;;;;10.02;5.90;;;;;;;-145.53;100.00;64590.91;6130418;28;109230;-58
2023/10/10 15:17:26;;;;;;;9.18;5.30;;;;;;;-145.53;100.00;64590.91;6131716;28;109027;-58
2023/10/10 15:20:32;;;;;;;6.38;4.80;;;;;;;-145.53;100.00;64590.91;6102913;28;109336;-58
2023/10/10 15:23:37;;;;;;;5.70;4.60;;;;;;;-145.53;100.00;64590.91;6137366;28;109064;-58
2023/10/10 15:26:40;;;;;;;8.35;5.10;;;;;;;-145.53;100.00;64590.91;6133797;28;109022;-57
2023/10/10 15:29:43;;;;;;;8.60;4.80;;;;;;;-145.53;100.00;64590.91;6136721;28;109548;-57
2023/10/10 15:32:47;;;;;;;5.70;4.50;;;;;;;-145.53;100.00;64590.91;6125734;28;109039;-57
2023/10/10 15:35:53;;;;;;;8.80;5.40;;;;;;;-145.53;100.00;64590.91;6134455;28;109539;-58
2023/10/10 15:38:56;;;;;;;9.32;4.80;;;;;;;-145.53;100.00;64590.91;6143715;28;108977;-58
2023/10/10 15:42:04;;;;;;;6.50;4.60;;;;;;;-145.53;100.00;64590.91;6145575;28;109225;-59
2023/10/10 15:45:08;;;;;;;6.93;4.40;;;;;;;-145.53;100.00;64590.91;6131472;28;109588;-58
2023/10/10 15:48:21;;;;;;;8.47;4.30;;;;;;;-145.53;100.00;64590.91;6145236;28;109324;-58
2023/10/10 15:51:26;;;;;;;8.80;4.57;;;;;;;-145.53;100.00;64590.91;6141858;28;110139;-57
2023/10/10 15:54:33;;;;;;;12.82;6.85;;;;;;;-145.53;100.00;64590.91;6116355;28;109100;-60
2023/10/10 15:57:38;;;;;;;7.75;5.35;;;;;;;-145.53;100.00;64590.91;6133491;28;109218;-57
2023/10/10 16:00:43;;;;;;;10.10;5.30;;;;;;;-145.53;100.00;64590.91;6136043;28;109136;-59